Time;durP1;ratioP1;P1;durP2;ratioP2;P2;SDS_P1;SDS_P2;PMS_P1;PMS_P2;Temp;Humidity;BMP_temperature;BMP_pressure;BME280_temperature;BME280_humidity;BME280_pressure;Samples;Min_cycle;Max_cycle;Signal;HPM_P1;HPM_P2
2021/04/17 00:00:15;;;;;;;;;20.50;17.40;;;;;8.24;72.54;100795.28;491020;109;387804;-71
2021/04/17 00:01:19;;;;;;;;;18.90;18.00;;;;;7.56;72.59;100683.06;490428;109;380862;-72
2021/04/17 00:02:23;;;;;;;;;23.60;20.60;;;;;7.56;72.59;100683.06;487799;110;381705;-71
2021/04/17 00:03:27;;;;;;;;;25.20;21.10;;;;;8.28;72.75;100789.73;488474;111;383517;-72
2021/04/17 00:04:31;;;;;;;;;23.60;19.50;;;;;8.26;72.10;100796.91;488455;111;383639;-71
2021/04/17 00:05:35;;;;;;;;;21.60;20.00;;;;;8.26;72.10;100796.91;491252;109;381984;-71
2021/04/17 00:06:40;;;;;;;;;22.30;19.20;;;;;8.19;72.41;100794.72;492098;109;388986;-73
2021/04/17 00:07:44;;;;;;;;;23.00;18.50;;;;;8.13;73.15;100781.86;487733;110;383056;-71
2021/04/17 00:08:47;;;;;;;;;21.80;19.40;;;;;8.13;73.15;100781.86;486487;112;383366;-71
2021/04/17 00:09:51;;;;;;;;;24.20;19.40;;;;;8.14;73.10;100789.70;488354;111;390687;-71
2021/04/17 00:10:55;;;;;;;;;18.90;15.60;;;;;8.17;72.86;100786.03;491233;109;382612;-71
2021/04/17 00:12:00;;;;;;;;;20.30;19.30;;;;;8.18;74.68;100787.72;489095;110;382863;-71
2021/04/17 00:13:04;;;;;;;;;15.60;14.00;;;;;8.16;73.21;100790.48;488055;111;381683;-71
2021/04/17 00:14:09;;;;;;;;;22.00;20.00;;;;;8.16;73.21;100790.48;488555;110;383607;-71
2021/04/17 00:15:14;;;;;;;;;19.90;18.70;;;;;8.20;73.55;100788.49;488679;110;382095;-72
2021/04/17 00:16:18;;;;;;;;;19.60;18.00;;;;;8.20;73.71;100784.02;488210;111;383413;-71
2021/04/17 00:17:22;;;;;;;;;20.90;17.90;;;;;8.19;73.27;100787.63;489180;110;382040;-71
2021/04/17 00:18:26;;;;;;;;;20.50;19.50;;;;;8.17;73.75;100784.20;489362;110;389122;-71
2021/04/17 00:19:30;;;;;;;;;20.40;19.00;;;;;8.14;73.11;100780.89;486451;112;381637;-71
2021/04/17 00:20:35;;;;;;;;;18.90;17.00;;;;;8.14;73.11;100780.89;485905;112;381726;-71
2021/04/17 00:21:39;;;;;;;;;23.30;18.60;;;;;8.17;74.08;100788.69;488496;111;383556;-71
2021/04/17 00:22:43;;;;;;;;;20.70;17.10;;;;;8.17;74.08;100788.69;488435;111;389775;-72
2021/04/17 00:23:47;;;;;;;;;17.80;16.20;;;;;8.20;73.66;100783.19;491334;109;383586;-71
2021/04/17 00:24:51;;;;;;;;;24.20;18.80;;;;;8.24;73.47;100782.88;489405;110;381823;-72
2021/04/17 00:25:54;;;;;;;;;17.60;16.30;;;;;8.24;73.47;100782.88;489152;110;382348;-69
2021/04/17 00:26:59;;;;;;;;;19.00;14.60;;;;;8.25;73.02;100779.30;489354;109;381301;-70
2021/04/17 00:28:02;;;;;;;;;22.10;20.30;;;;;8.23;73.28;100781.17;489722;109;383489;-70
2021/04/17 00:29:06;;;;;;;;;22.30;19.60;;;;;8.21;73.10;100775.13;488487;111;381328;-70
2021/04/17 00:30:13;;;;;;;;;19.70;19.30;;;;;8.15;73.67;100772.02;491141;110;381202;-69
2021/04/17 00:31:17;;;;;;;;;26.10;20.20;;;;;8.14;73.41;100779.10;487495;111;388149;-71
2021/04/17 00:32:20;;;;;;;;;21.80;20.20;;;;;8.13;73.39;100776.56;492104;110;383015;-69
2021/04/17 00:33:24;;;;;;;;;17.70;17.40;;;;;8.13;73.39;100776.56;491501;109;379755;-69
2021/04/17 00:34:28;;;;;;;;;19.80;18.60;;;;;8.15;73.28;100783.47;490853;109;388762;-69
2021/04/17 00:35:32;;;;;;;;;18.90;17.60;;;;;8.15;73.28;100783.47;494151;109;382498;-70
2021/04/17 00:36:36;;;;;;;;;23.20;18.80;;;;;8.18;73.62;100780.63;489015;110;381939;-71
2021/04/17 00:37:40;;;;;;;;;24.20;21.90;;;;;8.20;73.31;100784.02;491072;109;383271;-71
2021/04/17 00:38:44;;;;;;;;;24.00;21.00;;;;;8.21;73.03;100777.78;493037;109;381595;-72
2021/04/17 00:39:48;;;;;;;;;25.80;20.80;;;;;8.21;73.03;100777.78;487087;110;383847;-71
2021/04/17 00:40:52;;;;;;;;;19.60;17.20;;;;;8.15;72.57;100786.11;486435;112;383102;-71
2021/04/17 00:41:56;;;;;;;;;21.90;18.50;;;;;8.15;72.57;100786.11;486397;112;382785;-70
2021/04/17 00:42:59;;;;;;;;;19.70;19.60;;;;;8.09;73.28;100782.99;481996;112;382884;-71
2021/04/17 00:44:03;;;;;;;;;22.60;19.80;;;;;8.02;73.80;100786.97;479917;112;382018;-71
2021/04/17 00:45:09;;;;;;;;;25.70;22.30;;;;;8.01;73.68;100786.11;489241;110;384165;-72
2021/04/17 00:46:13;;;;;;;;;18.60;18.60;;;;;7.98;74.17;100786.30;490813;109;388868;-73
2021/04/17 00:47:17;;;;;;;;;19.30;18.20;;;;;7.98;74.17;100786.30;488661;110;381338;-72
2021/04/17 00:48:21;;;;;;;;;20.30;18.90;;;;;7.93;74.02;100788.39;488476;111;382868;-74
2021/04/17 00:49:25;;;;;;;;;22.90;22.10;;;;;7.91;74.79;100785.00;486394;112;382794;-71
2021/04/17 00:50:30;;;;;;;;;25.00;22.90;;;;;7.93;74.65;100788.39;489038;110;388822;-71
2021/04/17 00:51:34;;;;;;;;;22.90;22.00;;;;;7.91;74.31;100783.17;486338;112;390879;-72
2021/04/17 00:52:39;;;;;;;;;26.40;20.60;;;;;7.91;74.31;100783.17;488474;111;382406;-72
2021/04/17 00:53:44;;;;;;;;;20.80;19.00;;;;;7.92;74.43;100786.67;490974;109;382172;-73
2021/04/17 00:54:48;;;;;;;;;23.60;22.70;;;;;7.89;74.79;100786.87;486090;112;383604;-73
2021/04/17 00:55:52;;;;;;;;;25.10;22.10;;;;;7.85;74.71;100785.34;489324;110;382798;-71
2021/04/17 00:56:56;;;;;;;;;25.70;23.90;;;;;7.85;74.89;100795.94;486816;112;384427;-71
2021/04/17 00:58:00;;;;;;;;;21.90;19.90;;;;;7.81;74.67;100790.01;490881;109;382261;-71
2021/04/17 00:59:04;;;;;;;;;23.40;20.90;;;;;7.79;75.07;100791.02;489243;110;382581;-72
2021/04/17 01:00:11;;;;;;;;;24.40;20.70;;;;;7.78;75.22;100789.34;488784;109;383044;-72
2021/04/17 01:01:14;;;;;;;;;24.00;20.60;;;;;7.79;75.71;100788.38;490620;109;387939;-73
2021/04/17 01:02:21;;;;;;;;;26.50;23.00;;;;;7.79;75.71;100788.38;492222;109;383678;-72
2021/04/17 01:03:27;;;;;;;;;23.20;21.50;;;;;7.80;76.16;100792.73;488587;110;382515;-70
2021/04/17 01:04:33;;;;;;;;;24.70;23.20;;;;;7.84;75.73;100791.61;490842;109;387996;-71
2021/04/17 01:05:37;;;;;;;;;21.90;19.60;;;;;7.91;75.21;100787.64;490869;109;382098;-72
2021/04/17 01:06:45;;;;;;;;;23.10;19.80;;;;;7.90;75.67;100783.28;488164;110;382783;-71
2021/04/17 01:07:50;;;;;;;;;24.20;19.50;;;;;7.90;75.67;100783.28;487987;111;381626;-71
2021/04/17 01:08:58;;;;;;;;;23.50;20.60;;;;;7.92;75.35;100786.67;488592;110;382080;-70
2021/04/17 01:10:07;;;;;;;;;22.60;20.90;;;;;7.92;75.35;100786.67;492175;109;382073;-71
2021/04/17 01:11:14;;;;;;;;;25.40;21.50;;;;;7.91;75.71;100785.83;486145;110;383670;-71
2021/04/17 01:12:19;;;;;;;;;24.00;21.90;;;;;7.95;75.52;100783.84;488721;110;383210;-73
2021/04/17 01:13:23;;;;;;;;;24.80;22.20;;;;;7.98;75.69;100791.59;487380;110;382927;-72
2021/04/17 01:14:27;;;;;;;;;25.30;24.60;;;;;8.00;75.32;100795.02;486895;110;384523;-72
2021/04/17 01:15:30;;;;;;;;;20.20;20.20;;;;;8.00;75.32;100795.02;491325;109;381393;-72
2021/04/17 01:16:34;;;;;;;;;22.60;21.40;;;;;8.02;75.07;100793.12;489091;110;389336;-72
2021/04/17 01:17:38;;;;;;;;;24.10;23.40;;;;;8.07;75.26;100791.05;487162;110;382598;-71
2021/04/17 01:18:42;;;;;;;;;26.90;22.50;;;;;8.07;75.16;100796.35;490330;110;389351;-71
2021/04/17 01:19:55;;;;;;;;;23.80;20.90;;;;;8.07;75.16;100796.35;477658;113;389881;-71
2021/04/17 01:20:59;;;;;;;;;23.20;21.00;;;;;8.06;75.33;100791.99;479451;111;383464;-72
2021/04/17 01:22:03;;;;;;;;;23.10;22.10;;;;;8.07;75.25;100793.70;491085;111;383745;-72
2021/04/17 01:23:11;;;;;;;;;19.70;18.40;;;;;8.09;75.26;100791.80;484937;111;382607;-71
2021/04/17 01:24:17;;;;;;;;;28.90;24.40;;;;;8.08;75.06;100790.09;482355;112;389511;-70
2021/04/17 01:25:21;;;;;;;;;39.30;35.00;;;;;8.06;75.41;100791.99;484312;111;386064;-71
2021/04/17 01:26:27;;;;;;;;;52.20;40.80;;;;;8.06;75.37;100788.48;489057;111;388425;-71
2021/04/17 01:27:31;;;;;;;;;48.20;37.40;;;;;8.09;75.43;100789.15;490400;111;387724;-72
2021/04/17 01:28:36;;;;;;;;;27.20;25.50;;;;;8.12;75.27;100793.40;485895;111;384168;-70
2021/04/17 01:29:41;;;;;;;;;24.70;23.00;;;;;8.09;75.56;100791.80;486571;111;383194;-70
2021/04/17 01:30:45;;;;;;;;;24.50;22.60;;;;;8.08;75.76;100794.53;489295;111;382467;-70
2021/04/17 01:31:49;;;;;;;;;23.50;21.50;;;;;8.08;75.76;100794.53;485404;111;383123;-71
2021/04/17 01:32:53;;;;;;;;;28.20;23.50;;;;;8.10;75.76;100790.00;485799;111;384596;-70
2021/04/17 01:33:57;;;;;;;;;20.80;20.80;;;;;8.14;76.02;100796.80;488786;111;389561;-71
2021/04/17 01:35:01;;;;;;;;;27.00;23.90;;;;;8.13;75.79;100797.77;489474;111;384293;-70
2021/04/17 01:36:07;;;;;;;;;24.90;23.70;;;;;8.11;75.73;100792.55;489719;111;383063;-71
2021/04/17 01:37:11;;;;;;;;;24.40;23.20;;;;;8.12;75.88;100793.40;489434;111;383822;-70
2021/04/17 01:38:18;;;;;;;;;23.70;18.60;;;;;8.12;75.88;100793.40;486151;111;387872;-69
2021/04/17 01:39:24;;;;;;;;;22.90;21.70;;;;;8.12;76.29;100796.91;488826;111;383349;-70
2021/04/17 01:40:30;;;;;;;;;22.50;19.60;;;;;8.11;76.20;100799.63;489524;111;382001;-71
2021/04/17 01:41:35;;;;;;;;;21.10;18.90;;;;;8.13;76.26;100795.97;482170;112;381304;-70
2021/04/17 01:42:39;;;;;;;;;21.40;20.00;;;;;8.17;76.15;100796.63;488230;111;383121;-72
2021/04/17 01:43:43;;;;;;;;;24.30;22.00;;;;;8.17;76.15;100796.63;489779;111;383033;-71
2021/04/17 01:44:47;;;;;;;;;23.50;22.60;;;;;8.18;76.21;100790.36;489705;111;384727;-71
2021/04/17 01:45:51;;;;;;;;;26.10;24.50;;;;;8.20;76.24;100802.56;489909;111;388099;-71
2021/04/17 01:46:58;;;;;;;;;25.90;23.10;;;;;8.25;76.29;100800.49;485417;111;383905;-70
2021/04/17 01:48:03;;;;;;;;;26.70;23.60;;;;;8.25;76.29;100800.49;476683;113;384778;-70
2021/04/17 01:49:06;;;;;;;;;28.50;22.70;;;;;8.28;76.10;100802.98;480202;113;383240;-70
2021/04/17 01:50:13;;;;;;;;;24.40;22.30;;;;;8.27;75.80;100806.53;489387;111;383927;-71
2021/04/17 01:51:17;;;;;;;;;26.70;24.30;;;;;8.27;75.80;100806.53;482630;112;383700;-71
2021/04/17 01:52:22;;;;;;;;;19.50;19.00;;;;;8.26;76.12;100799.56;485769;111;381897;-71
2021/04/17 01:53:28;;;;;;;;;21.40;20.60;;;;;8.26;76.12;100799.56;489313;111;382611;-68
2021/04/17 01:54:36;;;;;;;;;27.80;24.90;;;;;8.31;76.14;100805.44;489081;111;385201;-72
2021/04/17 01:55:40;;;;;;;;;27.90;24.80;;;;;8.32;75.96;100801.85;489199;111;387748;-71
2021/04/17 01:56:44;;;;;;;;;25.40;21.60;;;;;8.34;76.24;100802.59;489836;111;382482;-70
2021/04/17 01:57:49;;;;;;;;;24.90;22.50;;;;;8.35;76.17;100812.26;487231;111;391439;-70
2021/04/17 01:58:53;;;;;;;;;25.60;21.30;;;;;8.36;76.65;100805.16;480276;112;382877;-70
2021/04/17 01:59:56;;;;;;;;;26.10;21.10;;;;;8.39;76.30;100804.97;485841;111;383800;-69
2021/04/17 02:01:00;;;;;;;;;25.40;23.10;;;;;8.35;76.55;100798.16;483339;111;389300;-71
2021/04/17 02:02:05;;;;;;;;;22.70;21.90;;;;;8.35;76.55;100798.16;490116;111;381683;-71
2021/04/17 02:03:09;;;;;;;;;24.20;22.90;;;;;8.41;76.92;100798.61;488970;111;382871;-71
2021/04/17 02:04:13;;;;;;;;;20.90;18.80;;;;;8.44;77.03;100803.72;490006;111;382367;-72
2021/04/17 02:05:17;;;;;;;;;23.50;21.30;;;;;8.43;76.14;100798.50;482834;112;383308;-70
2021/04/17 02:06:22;;;;;;;;;24.50;21.60;;;;;8.43;76.14;100798.50;488349;111;383437;-70
2021/04/17 02:07:27;;;;;;;;;24.80;23.90;;;;;8.43;76.38;100806.45;489885;111;382878;-70
2021/04/17 02:08:34;;;;;;;;;24.50;21.30;;;;;8.45;76.05;100796.63;489819;111;383541;-70
2021/04/17 02:09:38;;;;;;;;;26.00;23.90;;;;;8.45;75.95;100800.13;482486;112;383741;-69
2021/04/17 02:10:42;;;;;;;;;27.10;23.10;;;;;8.46;76.75;100795.66;487380;111;385215;-70
2021/04/17 02:11:46;;;;;;;;;22.80;21.40;;;;;8.34;76.37;100768.14;488042;111;382725;-70
2021/04/17 02:12:50;;;;;;;;;27.30;23.20;;;;;8.34;76.37;100768.14;489966;111;383876;-71
2021/04/17 02:13:54;;;;;;;;;23.50;20.80;;;;;8.48;75.88;100797.28;482460;112;383578;-70
2021/04/17 02:14:58;;;;;;;;;23.80;22.20;;;;;8.48;76.21;100791.12;485123;112;384446;-70
2021/04/17 02:16:04;;;;;;;;;23.90;20.60;;;;;8.48;76.21;100791.12;487798;111;383754;-70
2021/04/17 02:17:11;;;;;;;;;28.30;24.10;;;;;8.46;76.00;100795.66;487712;111;390894;-70
2021/04/17 02:18:24;;;;;;;;;25.80;22.70;;;;;8.46;76.00;100795.66;482204;112;382877;-71
2021/04/17 02:19:32;;;;;;;;;22.40;20.50;;;;;8.45;76.38;100789.53;484571;112;382482;-70
2021/04/17 02:20:40;;;;;;;;;22.40;18.30;;;;;8.37;75.52;100794.45;486589;111;383483;-70
2021/04/17 02:21:45;;;;;;;;;40.50;33.50;;;;;8.37;75.52;100794.45;489094;111;394019;-71
2021/04/17 02:22:49;;;;;;;;;27.50;24.00;;;;;8.35;76.14;100804.31;489893;111;383921;-69
2021/04/17 02:23:53;;;;;;;;;25.30;23.80;;;;;8.35;76.14;100804.31;489664;111;384078;-70
2021/04/17 02:24:57;;;;;;;;;20.60;19.10;;;;;8.25;76.50;100802.29;486770;111;384603;-70
2021/04/17 02:26:01;;;;;;;;;28.60;25.20;;;;;8.25;76.50;100802.29;490050;111;386116;-70
2021/04/17 02:27:05;;;;;;;;;28.60;24.80;;;;;8.23;76.69;100799.72;489824;111;384420;-70
2021/04/17 02:28:09;;;;;;;;;27.30;24.00;;;;;8.22;76.59;100797.19;489232;111;384753;-69
2021/04/17 02:29:13;;;;;;;;;25.90;22.70;;;;;8.19;76.65;100798.23;490006;111;382661;-68
2021/04/17 02:30:18;;;;;;;;;28.90;25.30;;;;;8.13;77.68;100801.27;486803;111;382868;-68
2021/04/17 02:31:23;;;;;;;;;27.30;23.70;;;;;8.15;78.23;100794.06;485879;111;383577;-69
2021/04/17 02:32:27;;;;;;;;;23.70;23.10;;;;;8.14;77.86;100800.30;489772;111;383121;-70
2021/04/17 02:33:30;;;;;;;;;22.20;21.90;;;;;8.19;77.74;100805.33;489632;111;386397;-69
2021/04/17 02:34:34;;;;;;;;;27.10;23.50;;;;;8.17;77.36;100807.23;485893;111;383473;-69
2021/04/17 02:35:38;;;;;;;;;23.70;21.60;;;;;8.12;77.99;100810.15;490095;111;382689;-75
2021/04/17 02:36:42;;;;;;;;;20.60;18.80;;;;;8.12;77.99;100810.15;490165;111;381470;-73
2021/04/17 02:37:46;;;;;;;;;22.60;21.40;;;;;8.10;78.25;100800.60;490101;111;383141;-71
2021/04/17 02:38:50;;;;;;;;;22.50;22.10;;;;;8.08;77.96;100811.28;489582;111;389742;-71
2021/04/17 02:39:54;;;;;;;;;21.60;20.50;;;;;8.09;78.01;100814.78;482101;112;382236;-71
2021/04/17 02:40:58;;;;;;;;;23.10;21.00;;;;;8.07;78.99;100817.55;488469;111;382932;-72
2021/04/17 02:42:01;;;;;;;;;25.40;20.90;;;;;8.09;79.10;100820.94;487279;111;383364;-71
2021/04/17 02:43:05;;;;;;;;;34.90;30.50;;;;;8.11;79.01;100823.48;489788;111;385136;-72
2021/04/17 02:44:09;;;;;;;;;26.30;24.90;;;;;8.13;77.81;100813.66;490003;111;391118;-72
2021/04/17 02:45:14;;;;;;;;;25.30;24.10;;;;;8.13;77.98;100819.81;489983;111;382886;-72
2021/04/17 02:46:18;;;;;;;;;22.60;22.20;;;;;8.13;77.98;100819.81;482806;112;381767;-72
2021/04/17 02:47:22;;;;;;;;;23.10;20.60;;;;;8.10;77.66;100820.00;485404;112;388015;-72
2021/04/17 02:48:26;;;;;;;;;23.10;21.20;;;;;8.08;78.11;100829.82;489787;111;383252;-73
2021/04/17 02:49:30;;;;;;;;;23.10;22.20;;;;;8.08;78.11;100829.82;485669;111;383367;-74
2021/04/17 02:50:34;;;;;;;;;23.50;21.20;;;;;8.05;77.98;100835.31;482374;112;382859;-75
2021/04/17 02:51:38;;;;;;;;;26.50;22.70;;;;;8.01;78.00;100828.48;485115;112;382802;-75
2021/04/17 02:52:42;;;;;;;;;26.60;24.00;;;;;7.99;78.77;100825.95;488916;111;389942;-74
2021/04/17 02:53:46;;;;;;;;;17.50;15.30;;;;;7.97;78.68;100832.30;489661;111;381853;-73
2021/04/17 02:54:50;;;;;;;;;24.70;23.30;;;;;7.97;78.68;100832.30;489972;111;383663;-73
2021/04/17 02:55:54;;;;;;;;;19.70;18.10;;;;;7.95;79.12;100834.16;482577;111;381946;-73
2021/04/17 02:56:58;;;;;;;;;24.90;20.50;;;;;7.92;80.44;100835.20;478268;113;382351;-74
2021/04/17 02:58:02;;;;;;;;;29.40;24.90;;;;;7.92;80.14;100837.86;477941;113;383973;-73
2021/04/17 02:59:05;;;;;;;;;20.20;19.80;;;;;7.93;79.44;100833.41;487878;111;381654;-73
2021/04/17 03:00:12;;;;;;;;;26.70;24.30;;;;;7.91;79.20;100840.62;488000;111;383184;-71
2021/04/17 03:01:16;;;;;;;;;24.10;22.30;;;;;7.88;79.42;100844.27;485601;111;389072;-73
2021/04/17 03:02:19;;;;;;;;;21.90;21.50;;;;;7.88;79.42;100844.27;489789;111;382842;-72
2021/04/17 03:03:24;;;;;;;;;19.30;18.40;;;;;7.88;79.35;100838.16;489616;111;387102;-73
2021/04/17 03:04:27;;;;;;;;;24.20;23.50;;;;;7.89;79.48;100845.98;487371;111;383113;-71
2021/04/17 03:05:31;;;;;;;;;27.50;22.50;;;;;7.90;79.75;100841.55;488956;111;383828;-72
2021/04/17 03:06:36;;;;;;;;;26.40;22.70;;;;;7.94;79.52;100843.08;482296;112;382466;-71
2021/04/17 03:07:40;;;;;;;;;27.40;26.20;;;;;7.91;79.48;100833.49;488797;111;384057;-71
2021/04/17 03:08:43;;;;;;;;;27.70;26.70;;;;;7.87;79.35;100845.23;490006;111;390791;-72
2021/04/17 03:09:47;;;;;;;;;24.40;22.40;;;;;7.84;80.17;100847.22;485729;111;390404;-74
2021/04/17 03:10:51;;;;;;;;;24.30;21.60;;;;;7.80;80.68;100840.39;489953;111;383587;-73
2021/04/17 03:11:55;;;;;;;;;23.80;21.50;;;;;7.80;80.68;100840.39;486604;111;382267;-72
2021/04/17 03:12:59;;;;;;;;;21.60;20.80;;;;;7.78;80.46;100843.16;489897;111;382782;-72
2021/04/17 03:14:03;;;;;;;;;33.10;26.50;;;;;7.77;80.17;100849.38;489642;111;386844;-74
2021/04/17 03:15:09;;;;;;;;;30.00;21.70;;;;;7.72;80.39;100851.44;489315;111;384180;-75
2021/04/17 03:16:13;;;;;;;;;30.60;26.10;;;;;7.72;80.44;100851.44;489464;111;386340;-73
2021/04/17 03:17:17;;;;;;;;;28.80;25.90;;;;;7.72;80.80;100850.61;483572;111;395696;-74
2021/04/17 03:18:21;;;;;;;;;26.00;23.80;;;;;7.72;81.37;100847.96;490108;111;383200;-70
2021/04/17 03:19:25;;;;;;;;;31.40;26.40;;;;;7.72;81.37;100847.96;489348;111;384678;-73
2021/04/17 03:20:31;;;;;;;;;25.60;24.50;;;;;7.74;81.09;100852.22;488178;111;382183;-73
2021/04/17 03:21:35;;;;;;;;;27.70;25.90;;;;;7.73;81.32;100844.34;491025;109;388314;-72
2021/04/17 03:22:38;;;;;;;;;23.10;21.40;;;;;7.70;81.55;100855.13;488749;111;391730;-72
2021/04/17 03:23:42;;;;;;;;;24.00;21.80;;;;;7.72;82.72;100854.08;486825;112;383370;-75
2021/04/17 03:24:46;;;;;;;;;27.70;23.70;;;;;7.73;82.19;100854.94;486880;112;383287;-75
2021/04/17 03:25:50;;;;;;;;;23.70;22.00;;;;;7.73;82.19;100854.94;489384;110;383474;-73
2021/04/17 03:26:54;;;;;;;;;25.40;24.20;;;;;7.78;81.50;100852.88;489071;110;387752;-72
2021/04/17 03:27:58;;;;;;;;;32.60;26.10;;;;;7.78;81.50;100852.88;486408;112;385037;-72
2021/04/17 03:29:02;;;;;;;;;27.80;25.40;;;;;7.02;81.45;100735.68;486387;112;384612;-75
2021/04/17 03:30:08;;;;;;;;;25.30;22.90;;;;;7.77;81.61;100859.97;491142;109;383061;-75
2021/04/17 03:31:11;;;;;;;;;25.70;23.00;;;;;7.79;81.89;100855.42;490827;109;389164;-74
2021/04/17 03:32:15;;;;;;;;;29.00;26.10;;;;;7.81;83.00;100864.15;488409;111;384979;-74
2021/04/17 03:33:19;;;;;;;;;32.10;24.80;;;;;7.82;83.00;100857.03;488489;111;384836;-75
2021/04/17 03:34:23;;;;;;;;;26.70;24.60;;;;;7.83;82.14;100858.75;488429;111;384622;-76
2021/04/17 03:35:28;;;;;;;;;24.40;23.00;;;;;7.83;82.14;100858.75;488237;110;382970;-75
2021/04/17 03:36:33;;;;;;;;;28.50;26.20;;;;;7.89;81.99;100856.58;493809;109;385065;-77
2021/04/17 03:37:37;;;;;;;;;26.40;25.50;;;;;7.94;81.67;100869.56;486385;112;383459;-77
2021/04/17 03:38:41;;;;;;;;;29.80;26.30;;;;;7.94;81.67;100869.56;492273;109;383446;-78
2021/04/17 03:39:44;;;;;;;;;29.10;24.00;;;;;7.91;82.03;100859.98;487781;110;385299;-75
2021/04/17 03:40:48;;;;;;;;;25.20;24.50;;;;;7.93;82.42;100873.14;493368;109;383196;-76
2021/04/17 03:41:52;;;;;;;;;31.20;23.60;;;;;7.94;83.21;100869.56;489333;110;391148;-75
2021/04/17 03:42:56;;;;;;;;;28.60;24.30;;;;;7.94;83.21;100869.56;491350;109;384241;-76
2021/04/17 03:44:00;;;;;;;;;29.80;26.10;;;;;7.95;82.78;100865.95;486276;112;385582;-76
2021/04/17 03:45:05;;;;;;;;;25.40;23.00;;;;;8.02;83.19;100875.23;488914;110;382324;-77
2021/04/17 03:46:10;;;;;;;;;32.40;24.90;;;;;8.02;83.19;100875.23;488717;110;383161;-76
2021/04/17 03:47:13;;;;;;;;;25.90;22.70;;;;;8.04;83.14;100873.33;491902;110;382518;-75
2021/04/17 03:48:17;;;;;;;;;30.40;27.40;;;;;8.05;82.88;100868.89;488379;111;384698;-77
2021/04/17 03:49:21;;;;;;;;;33.60;28.40;;;;;8.05;82.88;100868.89;490330;109;392111;-77
2021/04/17 03:50:27;;;;;;;;;30.30;28.80;;;;;8.10;82.66;100877.42;489028;109;385555;-76
2021/04/17 03:51:31;;;;;;;;;33.80;29.70;;;;;8.10;82.66;100877.42;488778;109;390912;-77
2021/04/17 03:52:35;;;;;;;;;29.10;26.20;;;;;8.12;82.80;100883.47;489050;110;385746;-75
2021/04/17 03:53:39;;;;;;;;;35.20;30.80;;;;;8.19;82.43;100876.86;486397;110;385483;-77
2021/04/17 03:54:42;;;;;;;;;32.30;29.30;;;;;8.23;82.89;100876.56;492849;109;384507;-75
2021/04/17 03:55:46;;;;;;;;;32.60;31.40;;;;;8.23;82.89;100876.56;488393;111;385066;-74
2021/04/17 03:56:50;;;;;;;;;35.00;28.50;;;;;8.25;82.38;100879.13;488364;111;393437;-79
2021/04/17 03:57:54;;;;;;;;;32.80;28.00;;;;;8.26;82.44;100887.00;488391;111;389099;-77
2021/04/17 03:58:58;;;;;;;;;29.10;27.60;;;;;8.30;82.69;100888.53;491772;109;385370;-77
2021/04/17 04:00:02;;;;;;;;;35.30;31.30;;;;;8.30;82.69;100888.53;488149;110;386190;-78
2021/04/17 04:01:08;;;;;;;;;33.10;32.30;;;;;8.34;82.00;100889.20;487910;111;385458;-77
2021/04/17 04:02:12;;;;;;;;;36.30;31.40;;;;;8.34;82.16;100894.50;490790;109;385748;-77
2021/04/17 04:03:16;;;;;;;;;33.30;29.30;;;;;8.34;82.16;100894.50;488461;111;384980;-74
2021/04/17 04:04:20;;;;;;;;;37.30;34.20;;;;;8.31;82.43;100895.55;486829;110;385554;-76
2021/04/17 04:05:24;;;;;;;;;34.40;30.80;;;;;8.35;82.75;100891.77;487925;110;385134;-76
2021/04/17 04:06:28;;;;;;;;;36.40;33.40;;;;;8.35;82.75;100891.77;490892;109;386434;-75
2021/04/17 04:07:32;;;;;;;;;41.00;36.40;;;;;8.38;82.04;100903.97;488351;111;394378;-76
2021/04/17 04:08:36;;;;;;;;;37.20;33.70;;;;;8.37;82.48;100902.26;489066;110;384508;-77
2021/04/17 04:09:40;;;;;;;;;39.60;35.40;;;;;8.34;82.33;100898.00;488398;111;387424;-79
2021/04/17 04:10:45;;;;;;;;;36.10;32.10;;;;;8.39;82.55;100898.55;491174;109;385408;-80
2021/04/17 04:11:49;;;;;;;;;30.80;27.20;;;;;8.39;82.55;100898.55;488465;111;385210;-78
2021/04/17 04:12:53;;;;;;;;;35.20;31.60;;;;;8.43;82.53;100900.08;488488;111;385584;-80
2021/04/17 04:13:56;;;;;;;;;33.30;29.00;;;;;8.43;82.52;100904.53;488410;111;385385;-73
2021/04/17 04:15:00;;;;;;;;;31.60;29.40;;;;;8.43;82.52;100904.53;487928;111;384932;-74
2021/04/17 04:16:04;;;;;;;;;31.30;28.10;;;;;8.46;82.35;100888.43;491145;109;385415;-74
2021/04/17 04:17:08;;;;;;;;;38.60;35.10;;;;;8.46;81.95;100905.19;486342;112;385930;-77
2021/04/17 04:18:12;;;;;;;;;33.70;30.70;;;;;8.46;81.95;100905.19;489294;110;383917;-75
2021/04/17 04:19:16;;;;;;;;;33.70;29.60;;;;;8.46;83.27;100899.03;491275;109;385974;-72
2021/04/17 04:20:21;;;;;;;;;38.80;33.70;;;;;8.48;82.56;100903.31;490935;109;384866;-75
2021/04/17 04:21:24;;;;;;;;;33.40;31.30;;;;;8.48;82.56;100903.31;489781;111;385574;-75
2021/04/17 04:22:28;;;;;;;;;33.10;32.20;;;;;8.47;83.29;100898.09;488538;111;389870;-74
2021/04/17 04:23:32;;;;;;;;;35.20;32.50;;;;;8.44;82.55;100900.94;489983;111;386693;-75
2021/04/17 04:24:36;;;;;;;;;37.10;33.60;;;;;8.46;82.79;100909.64;484592;112;386978;-73
2021/04/17 04:25:40;;;;;;;;;31.70;29.40;;;;;8.44;82.64;100901.80;486119;111;390735;-74
2021/04/17 04:26:44;;;;;;;;;33.60;30.80;;;;;8.43;83.58;100909.83;489569;111;384352;-74
2021/04/17 04:27:48;;;;;;;;;36.80;32.40;;;;;8.44;83.04;100907.09;489819;111;385877;-74
2021/04/17 04:28:51;;;;;;;;;32.70;29.70;;;;;8.44;83.04;100907.09;485229;111;384450;-74
2021/04/17 04:29:56;;;;;;;;;36.80;34.80;;;;;8.49;83.23;100909.45;489798;111;393661;-74
2021/04/17 04:31:00;;;;;;;;;37.40;34.60;;;;;8.50;82.59;100912.02;489632;111;386765;-74
2021/04/17 04:32:04;;;;;;;;;35.40;30.90;;;;;8.52;83.42;100911.91;488099;111;385642;-75
2021/04/17 04:33:08;;;;;;;;;35.60;31.60;;;;;8.54;82.96;100909.17;489176;111;384612;-75
2021/04/17 04:34:11;;;;;;;;;36.10;32.10;;;;;8.55;82.75;100909.09;489924;111;386234;-77
2021/04/17 04:35:16;;;;;;;;;35.30;32.20;;;;;8.51;82.25;100915.52;490008;111;385900;-75
2021/04/17 04:36:20;;;;;;;;;33.60;30.50;;;;;8.51;82.25;100915.52;489690;111;385646;-76
2021/04/17 04:37:24;;;;;;;;;38.00;31.50;;;;;8.50;82.99;100917.32;489781;111;386433;-77
2021/04/17 04:38:28;;;;;;;;;40.00;32.90;;;;;8.45;82.98;100919.41;489813;111;386877;-77
2021/04/17 04:39:32;;;;;;;;;34.90;31.50;;;;;8.45;82.89;100913.25;489073;111;389384;-76
2021/04/17 04:40:36;;;;;;;;;35.50;32.60;;;;;8.45;82.89;100913.25;486361;111;386450;-76
2021/04/17 04:41:40;;;;;;;;;35.10;30.80;;;;;8.47;82.92;100911.35;489978;111;384687;-77
2021/04/17 04:42:46;;;;;;;;;36.80;29.50;;;;;8.50;82.51;100919.11;482270;111;386256;-77
2021/04/17 04:43:51;;;;;;;;;29.80;28.70;;;;;8.50;82.67;100917.32;489494;111;383587;-78
2021/04/17 04:44:55;;;;;;;;;36.10;31.40;;;;;8.48;82.10;100913.06;489504;111;385898;-78
2021/04/17 04:45:58;;;;;;;;;33.90;27.60;;;;;8.48;82.10;100913.06;485062;112;390699;-77
2021/04/17 04:47:03;;;;;;;;;28.40;21.60;;;;;8.47;82.21;100919.30;484962;112;384819;-78
2021/04/17 04:48:09;;;;;;;;;34.30;31.90;;;;;8.45;82.34;100914.11;483768;112;385734;-77
2021/04/17 04:49:14;;;;;;;;;32.80;29.50;;;;;8.44;82.74;100911.55;484618;111;384895;-77
2021/04/17 04:50:18;;;;;;;;;35.80;31.80;;;;;8.44;82.74;100911.55;486539;111;384687;-76
2021/04/17 04:51:22;;;;;;;;;32.60;27.80;;;;;8.43;82.55;100915.98;489761;111;386200;-76
2021/04/17 04:52:26;;;;;;;;;36.20;31.00;;;;;8.42;83.18;100914.27;489792;111;384760;-72